Destiny — ZCTE3 — position and weather

sailwx.info

Track history (hours):
 
Tides and Currents Weather Stations Pressure Air Temp Water Temp Dewpoint Dewpoint Depression Visibility Wind Speed Wind Dir Waves Ship Positions

Destiny

Last reported at 2017-Jun-17 17:49 UTC. Time now 2017-Jun-25 17:26 UTC.
Position N 42°20' E 008°33'.

Length 37 m; draft 2.2 m.

Type: Pleasure craft. MMSI: 319864000.

Date/timePositionNaut miles runAvg speedWind from/ knotsBaromVisibWave heightAir tempDewpointWater temp
2017-Jun-17 17:49N 42°20' E 008°33'1021.5
2017-Jun-17 17:20N 42°28' E 008°26'721.7
2017-Jun-17 17:00N 42°35' E 008°23'1121.6
2017-Jun-17 16:29N 42°45' E 008°16'1521.7
2017-Jun-17 15:47N 42°59' E 008°08'622.0
2017-Jun-17 15:29N 43°05' E 008°04'1122.2
2017-Jun-17 15:00N 43°13' E 007°55'2921.9
2017-Jun-17 13:41N 43°36' E 007°30'421.8
2017-Jun-17 13:30N 43°39' E 007°27'5 1.3
2017-Jun-17 09:25N 43°40' E 007°19'  
Track history (hours):
 
Tides and Currents Weather Stations Pressure Air Temp Water Temp Dewpoint Dewpoint Depression Visibility Wind Speed Wind Dir Waves Ship Positions

Destiny

Last reported at 2017-Jun-17 17:49 UTC. Time now 2017-Jun-25 17:26 UTC.
Position N 42°20' E 008°33'.

Length 37 m; draft 2.2 m.

Type: Pleasure craft. MMSI: 319864000.

Date/timePositionNaut miles runAvg speedWind from/ knotsBaromVisibWave heightAir tempDewpointWater temp
2017-Jun-17 17:49N 42°20' E 008°33'1021.5
2017-Jun-17 17:20N 42°28' E 008°26'721.7
2017-Jun-17 17:00N 42°35' E 008°23'1121.6
2017-Jun-17 16:29N 42°45' E 008°16'1521.7
2017-Jun-17 15:47N 42°59' E 008°08'622.0
2017-Jun-17 15:29N 43°05' E 008°04'1122.2
2017-Jun-17 15:00N 43°13' E 007°55'2921.9
2017-Jun-17 13:41N 43°36' E 007°30'421.8
2017-Jun-17 13:30N 43°39' E 007°27'5 1.3
2017-Jun-17 09:25N 43°40' E 007°19'  

Dump ship's entire track history